sensor_id;sensor_type;location;lat;lon;timestamp;temperature;humidity
14142;DHT22;7151;52.246;4.820;2023-08-06T00:00:05;19.90;90.20
14142;DHT22;7151;52.246;4.820;2023-08-06T00:02:30;19.90;90.20
14142;DHT22;7151;52.246;4.820;2023-08-06T00:04:56;19.90;90.20
14142;DHT22;7151;52.246;4.820;2023-08-06T00:07:22;19.90;90.20
14142;DHT22;7151;52.246;4.820;2023-08-06T00:09:47;19.90;90.20
14142;DHT22;7151;52.246;4.820;2023-08-06T00:12:13;19.90;90.20
14142;DHT22;7151;52.246;4.820;2023-08-06T00:14:38;19.90;90.20
14142;DHT22;7151;52.246;4.820;2023-08-06T00:17:04;19.90;90.30
14142;DHT22;7151;52.246;4.820;2023-08-06T00:19:31;19.90;90.30
14142;DHT22;7151;52.246;4.820;2023-08-06T00:21:56;19.90;90.30
14142;DHT22;7151;52.246;4.820;2023-08-06T00:24:22;19.80;90.30
14142;DHT22;7151;52.246;4.820;2023-08-06T00:26:47;19.90;90.30
14142;DHT22;7151;52.246;4.820;2023-08-06T00:29:13;19.90;90.30
14142;DHT22;7151;52.246;4.820;2023-08-06T00:31:38;19.90;90.30
14142;DHT22;7151;52.246;4.820;2023-08-06T00:34:04;19.90;90.30
14142;DHT22;7151;52.246;4.820;2023-08-06T00:36:30;19.90;90.40
14142;DHT22;7151;52.246;4.820;2023-08-06T00:38:55;19.90;90.40
14142;DHT22;7151;52.246;4.820;2023-08-06T00:41:21;19.90;90.40
14142;DHT22;7151;52.246;4.820;2023-08-06T00:43:47;19.90;90.40
14142;DHT22;7151;52.246;4.820;2023-08-06T00:46:13;19.90;90.50
14142;DHT22;7151;52.246;4.820;2023-08-06T00:48:40;19.90;90.50
14142;DHT22;7151;52.246;4.820;2023-08-06T00:51:06;19.90;90.50
14142;DHT22;7151;52.246;4.820;2023-08-06T00:53:32;19.90;90.50
14142;DHT22;7151;52.246;4.820;2023-08-06T00:55:58;19.90;90.50
14142;DHT22;7151;52.246;4.820;2023-08-06T00:58:25;19.90;90.50
14142;DHT22;7151;52.246;4.820;2023-08-06T01:00:50;19.90;90.50
14142;DHT22;7151;52.246;4.820;2023-08-06T01:03:16;19.90;90.60
14142;DHT22;7151;52.246;4.820;2023-08-06T01:05:41;19.90;90.60
14142;DHT22;7151;52.246;4.820;2023-08-06T01:08:28;19.90;90.60
14142;DHT22;7151;52.246;4.820;2023-08-06T01:13:46;19.90;90.60
14142;DHT22;7151;52.246;4.820;2023-08-06T01:16:15;19.90;90.60
14142;DHT22;7151;52.246;4.820;2023-08-06T01:18:41;19.90;90.60
14142;DHT22;7151;52.246;4.820;2023-08-06T01:21:08;19.90;90.60
14142;DHT22;7151;52.246;4.820;2023-08-06T01:23:34;19.90;90.70
14142;DHT22;7151;52.246;4.820;2023-08-06T01:26:27;19.90;90.70
14142;DHT22;7151;52.246;4.820;2023-08-06T01:29:15;19.90;90.70
14142;DHT22;7151;52.246;4.820;2023-08-06T01:31:44;19.90;90.70
14142;DHT22;7151;52.246;4.820;2023-08-06T01:34:22;19.90;90.70
14142;DHT22;7151;52.246;4.820;2023-08-06T01:36:49;19.90;90.70
14142;DHT22;7151;52.246;4.820;2023-08-06T01:39:15;19.90;90.70
14142;DHT22;7151;52.246;4.820;2023-08-06T01:41:40;19.90;90.70
14142;DHT22;7151;52.246;4.820;2023-08-06T01:44:06;19.80;90.70
14142;DHT22;7151;52.246;4.820;2023-08-06T01:46:32;19.80;90.70
14142;DHT22;7151;52.246;4.820;2023-08-06T01:48:57;19.80;90.70
14142;DHT22;7151;52.246;4.820;2023-08-06T01:51:23;19.80;90.80
14142;DHT22;7151;52.246;4.820;2023-08-06T01:53:48;19.80;90.80
14142;DHT22;7151;52.246;4.820;2023-08-06T01:56:14;19.80;90.80
14142;DHT22;7151;52.246;4.820;2023-08-06T01:58:39;19.80;90.80
14142;DHT22;7151;52.246;4.820;2023-08-06T02:01:05;19.80;90.80
14142;DHT22;7151;52.246;4.820;2023-08-06T02:03:30;19.80;90.80
14142;DHT22;7151;52.246;4.820;2023-08-06T02:05:57;19.80;90.90
14142;DHT22;7151;52.246;4.820;2023-08-06T02:08:22;19.80;90.90
14142;DHT22;7151;52.246;4.820;2023-08-06T02:10:48;19.80;90.90
14142;DHT22;7151;52.246;4.820;2023-08-06T02:13:13;19.80;90.90
14142;DHT22;7151;52.246;4.820;2023-08-06T02:15:43;19.80;90.90
14142;DHT22;7151;52.246;4.820;2023-08-06T02:18:09;19.80;90.90
14142;DHT22;7151;52.246;4.820;2023-08-06T02:20:34;19.80;90.90
14142;DHT22;7151;52.246;4.820;2023-08-06T02:23:00;19.80;90.90
14142;DHT22;7151;52.246;4.820;2023-08-06T02:25:25;19.80;90.90
14142;DHT22;7151;52.246;4.820;2023-08-06T02:27:51;19.80;91.00
14142;DHT22;7151;52.246;4.820;2023-08-06T02:30:17;19.80;91.00
14142;DHT22;7151;52.246;4.820;2023-08-06T02:32:42;19.80;91.00
14142;DHT22;7151;52.246;4.820;2023-08-06T02:35:08;19.80;91.00
14142;DHT22;7151;52.246;4.820;2023-08-06T02:37:34;19.80;91.00
14142;DHT22;7151;52.246;4.820;2023-08-06T02:40:00;19.80;91.00
14142;DHT22;7151;52.246;4.820;2023-08-06T02:42:25;19.80;91.10
14142;DHT22;7151;52.246;4.820;2023-08-06T02:44:52;19.80;91.10
14142;DHT22;7151;52.246;4.820;2023-08-06T02:47:20;19.80;91.10
14142;DHT22;7151;52.246;4.820;2023-08-06T02:49:46;19.80;91.10
14142;DHT22;7151;52.246;4.820;2023-08-06T02:52:11;19.80;91.10
14142;DHT22;7151;52.246;4.820;2023-08-06T02:54:37;19.80;91.20
14142;DHT22;7151;52.246;4.820;2023-08-06T02:57:03;19.80;91.50
14142;DHT22;7151;52.246;4.820;2023-08-06T02:59:28;19.80;91.20
14142;DHT22;7151;52.246;4.820;2023-08-06T03:01:54;19.80;91.20
14142;DHT22;7151;52.246;4.820;2023-08-06T03:04:19;19.80;91.20
14142;DHT22;7151;52.246;4.820;2023-08-06T03:06:45;19.80;91.30
14142;DHT22;7151;52.246;4.820;2023-08-06T03:09:10;19.80;91.30
14142;DHT22;7151;52.246;4.820;2023-08-06T03:11:36;19.80;91.30
14142;DHT22;7151;52.246;4.820;2023-08-06T03:14:01;19.80;91.30
14142;DHT22;7151;52.246;4.820;2023-08-06T03:16:27;19.80;91.30
14142;DHT22;7151;52.246;4.820;2023-08-06T03:18:53;19.80;91.30
14142;DHT22;7151;52.246;4.820;2023-08-06T03:21:18;19.80;91.30
14142;DHT22;7151;52.246;4.820;2023-08-06T03:23:47;19.80;91.30
14142;DHT22;7151;52.246;4.820;2023-08-06T03:26:13;19.80;91.40
14142;DHT22;7151;52.246;4.820;2023-08-06T03:28:39;19.80;91.40
14142;DHT22;7151;52.246;4.820;2023-08-06T03:31:04;19.80;91.40
14142;DHT22;7151;52.246;4.820;2023-08-06T03:33:30;19.80;91.40
14142;DHT22;7151;52.246;4.820;2023-08-06T03:35:56;19.80;91.40
14142;DHT22;7151;52.246;4.820;2023-08-06T03:38:22;19.80;91.40
14142;DHT22;7151;52.246;4.820;2023-08-06T03:40:48;19.80;91.50
14142;DHT22;7151;52.246;4.820;2023-08-06T03:43:14;19.80;91.50
14142;DHT22;7151;52.246;4.820;2023-08-06T03:45:42;19.80;91.50
14142;DHT22;7151;52.246;4.820;2023-08-06T03:48:08;19.90;91.60
14142;DHT22;7151;52.246;4.820;2023-08-06T03:50:34;19.90;91.60
14142;DHT22;7151;52.246;4.820;2023-08-06T03:53:00;19.90;91.50
14142;DHT22;7151;52.246;4.820;2023-08-06T03:55:26;19.80;91.40
14142;DHT22;7151;52.246;4.820;2023-08-06T03:57:51;19.80;91.40
14142;DHT22;7151;52.246;4.820;2023-08-06T04:00:17;19.80;91.30
14142;DHT22;7151;52.246;4.820;2023-08-06T04:02:43;19.80;91.30
14142;DHT22;7151;52.246;4.820;2023-08-06T04:05:09;19.80;91.20
14142;DHT22;7151;52.246;4.820;2023-08-06T04:07:34;19.80;91.10
14142;DHT22;7151;52.246;4.820;2023-08-06T04:10:02;19.70;91.00
14142;DHT22;7151;52.246;4.820;2023-08-06T04:12:28;19.70;90.90
14142;DHT22;7151;52.246;4.820;2023-08-06T04:14:54;19.70;90.80
14142;DHT22;7151;52.246;4.820;2023-08-06T04:17:21;19.70;90.70
14142;DHT22;7151;52.246;4.820;2023-08-06T04:19:49;19.60;90.70
14142;DHT22;7151;52.246;4.820;2023-08-06T04:22:16;19.60;90.60
14142;DHT22;7151;52.246;4.820;2023-08-06T04:24:42;19.60;90.60
14142;DHT22;7151;52.246;4.820;2023-08-06T04:27:09;19.50;90.60
14142;DHT22;7151;52.246;4.820;2023-08-06T04:29:35;19.50;90.60
14142;DHT22;7151;52.246;4.820;2023-08-06T04:32:01;19.50;90.60
14142;DHT22;7151;52.246;4.820;2023-08-06T04:34:26;19.50;90.60
14142;DHT22;7151;52.246;4.820;2023-08-06T04:36:52;19.50;90.60
14142;DHT22;7151;52.246;4.820;2023-08-06T04:39:18;19.40;90.60
14142;DHT22;7151;52.246;4.820;2023-08-06T04:41:43;19.40;90.60
14142;DHT22;7151;52.246;4.820;2023-08-06T04:44:09;19.40;90.60
14142;DHT22;7151;52.246;4.820;2023-08-06T04:46:35;19.40;90.60
14142;DHT22;7151;52.246;4.820;2023-08-06T04:49:00;19.40;90.60
14142;DHT22;7151;52.246;4.820;2023-08-06T04:51:26;19.40;90.60
14142;DHT22;7151;52.246;4.820;2023-08-06T04:53:51;19.40;90.70
14142;DHT22;7151;52.246;4.820;2023-08-06T04:56:17;19.40;90.70
14142;DHT22;7151;52.246;4.820;2023-08-06T04:58:42;19.30;90.70
14142;DHT22;7151;52.246;4.820;2023-08-06T05:01:08;19.30;90.70
14142;DHT22;7151;52.246;4.820;2023-08-06T05:03:34;19.30;90.70
14142;DHT22;7151;52.246;4.820;2023-08-06T05:05:59;19.30;90.70
14142;DHT22;7151;52.246;4.820;2023-08-06T05:08:25;19.30;90.80
14142;DHT22;7151;52.246;4.820;2023-08-06T05:10:56;19.30;90.80
14142;DHT22;7151;52.246;4.820;2023-08-06T05:13:22;19.30;90.80
14142;DHT22;7151;52.246;4.820;2023-08-06T05:15:48;19.30;90.80
14142;DHT22;7151;52.246;4.820;2023-08-06T05:18:13;19.30;90.80
14142;DHT22;7151;52.246;4.820;2023-08-06T05:20:40;19.30;90.80
14142;DHT22;7151;52.246;4.820;2023-08-06T05:23:06;19.30;91.10
14142;DHT22;7151;52.246;4.820;2023-08-06T05:25:32;19.30;90.80
14142;DHT22;7151;52.246;4.820;2023-08-06T05:27:59;19.30;90.80
14142;DHT22;7151;52.246;4.820;2023-08-06T05:30:26;19.30;90.80
14142;DHT22;7151;52.246;4.820;2023-08-06T05:32:52;19.30;90.80
14142;DHT22;7151;52.246;4.820;2023-08-06T05:35:18;19.30;90.80
14142;DHT22;7151;52.246;4.820;2023-08-06T05:37:43;19.30;90.80
14142;DHT22;7151;52.246;4.820;2023-08-06T05:40:09;19.30;90.90
14142;DHT22;7151;52.246;4.820;2023-08-06T05:42:35;19.30;90.90
14142;DHT22;7151;52.246;4.820;2023-08-06T05:45:00;19.30;90.90
14142;DHT22;7151;52.246;4.820;2023-08-06T05:47:26;19.30;90.90
14142;DHT22;7151;52.246;4.820;2023-08-06T05:49:51;19.30;91.00
14142;DHT22;7151;52.246;4.820;2023-08-06T05:52:17;19.30;91.00
14142;DHT22;7151;52.246;4.820;2023-08-06T05:54:43;19.30;91.00
14142;DHT22;7151;52.246;4.820;2023-08-06T05:57:08;19.30;91.10
14142;DHT22;7151;52.246;4.820;2023-08-06T05:59:34;19.30;91.10
14142;DHT22;7151;52.246;4.820;2023-08-06T06:01:59;19.30;91.20
14142;DHT22;7151;52.246;4.820;2023-08-06T06:04:25;19.30;91.20
14142;DHT22;7151;52.246;4.820;2023-08-06T06:06:51;19.30;91.20
14142;DHT22;7151;52.246;4.820;2023-08-06T06:09:16;19.30;91.20
14142;DHT22;7151;52.246;4.820;2023-08-06T06:11:42;19.30;91.20
14142;DHT22;7151;52.246;4.820;2023-08-06T06:14:07;19.40;91.30
14142;DHT22;7151;52.246;4.820;2023-08-06T06:16:34;19.30;91.30
14142;DHT22;7151;52.246;4.820;2023-08-06T06:18:59;19.40;91.30
14142;DHT22;7151;52.246;4.820;2023-08-06T06:21:25;19.40;91.30
14142;DHT22;7151;52.246;4.820;2023-08-06T06:23:50;19.40;91.30
14142;DHT22;7151;52.246;4.820;2023-08-06T06:26:18;19.40;91.30
14142;DHT22;7151;52.246;4.820;2023-08-06T06:28:43;19.40;91.40
14142;DHT22;7151;52.246;4.820;2023-08-06T06:31:09;19.40;91.40
14142;DHT22;7151;52.246;4.820;2023-08-06T06:33:34;19.40;91.40
14142;DHT22;7151;52.246;4.820;2023-08-06T06:36:00;19.40;91.70
14142;DHT22;7151;52.246;4.820;2023-08-06T06:38:28;19.40;91.70
14142;DHT22;7151;52.246;4.820;2023-08-06T06:40:57;19.40;91.30
14142;DHT22;7151;52.246;4.820;2023-08-06T06:43:23;19.40;91.30
14142;DHT22;7151;52.246;4.820;2023-08-06T06:45:59;19.40;91.30
14142;DHT22;7151;52.246;4.820;2023-08-06T06:48:28;19.40;91.30
14142;DHT22;7151;52.246;4.820;2023-08-06T06:50:53;19.40;91.30
14142;DHT22;7151;52.246;4.820;2023-08-06T06:53:19;19.40;91.20
14142;DHT22;7151;52.246;4.820;2023-08-06T06:55:45;19.40;91.20
14142;DHT22;7151;52.246;4.820;2023-08-06T06:58:10;19.40;91.20
14142;DHT22;7151;52.246;4.820;2023-08-06T07:00:37;19.40;91.20
14142;DHT22;7151;52.246;4.820;2023-08-06T07:03:03;19.40;91.20
14142;DHT22;7151;52.246;4.820;2023-08-06T07:05:28;19.40;91.20
14142;DHT22;7151;52.246;4.820;2023-08-06T07:07:54;19.40;91.20
14142;DHT22;7151;52.246;4.820;2023-08-06T07:10:19;19.40;91.20
14142;DHT22;7151;52.246;4.820;2023-08-06T07:12:48;19.40;91.30
14142;DHT22;7151;52.246;4.820;2023-08-06T07:15:14;19.40;91.30
14142;DHT22;7151;52.246;4.820;2023-08-06T07:17:40;19.40;91.30
14142;DHT22;7151;52.246;4.820;2023-08-06T07:20:06;19.40;91.30
14142;DHT22;7151;52.246;4.820;2023-08-06T07:22:32;19.40;91.40
14142;DHT22;7151;52.246;4.820;2023-08-06T07:24:57;19.40;91.40
14142;DHT22;7151;52.246;4.820;2023-08-06T07:27:24;19.40;91.40
14142;DHT22;7151;52.246;4.820;2023-08-06T07:29:50;19.40;91.50
14142;DHT22;7151;52.246;4.820;2023-08-06T07:32:15;19.40;91.50
14142;DHT22;7151;52.246;4.820;2023-08-06T07:34:41;19.40;91.50
14142;DHT22;7151;52.246;4.820;2023-08-06T07:37:07;19.40;91.50
14142;DHT22;7151;52.246;4.820;2023-08-06T07:39:32;19.40;91.50
14142;DHT22;7151;52.246;4.820;2023-08-06T07:41:58;19.40;91.50
14142;DHT22;7151;52.246;4.820;2023-08-06T07:44:23;19.40;91.50
14142;DHT22;7151;52.246;4.820;2023-08-06T07:46:49;19.40;91.60
14142;DHT22;7151;52.246;4.820;2023-08-06T07:49:15;19.50;91.60
14142;DHT22;7151;52.246;4.820;2023-08-06T07:51:41;19.50;91.60
14142;DHT22;7151;52.246;4.820;2023-08-06T07:54:07;19.50;91.70
14142;DHT22;7151;52.246;4.820;2023-08-06T07:56:32;19.50;91.70
14142;DHT22;7151;52.246;4.820;2023-08-06T07:58:58;19.50;91.70
14142;DHT22;7151;52.246;4.820;2023-08-06T08:01:23;19.50;91.70
14142;DHT22;7151;52.246;4.820;2023-08-06T08:03:49;19.50;91.90
14142;DHT22;7151;52.246;4.820;2023-08-06T08:06:15;19.50;91.60
14142;DHT22;7151;52.246;4.820;2023-08-06T08:08:41;19.50;91.90
14142;DHT22;7151;52.246;4.820;2023-08-06T08:11:06;19.50;91.60
14142;DHT22;7151;52.246;4.820;2023-08-06T08:13:32;19.50;91.60
14142;DHT22;7151;52.246;4.820;2023-08-06T08:15:58;19.50;91.70
14142;DHT22;7151;52.246;4.820;2023-08-06T08:18:25;19.40;91.70
14142;DHT22;7151;52.246;4.820;2023-08-06T08:20:51;19.50;91.70
14142;DHT22;7151;52.246;4.820;2023-08-06T08:23:16;19.50;91.70
14142;DHT22;7151;52.246;4.820;2023-08-06T08:25:42;19.50;91.70
14142;DHT22;7151;52.246;4.820;2023-08-06T08:28:08;19.50;91.80
14142;DHT22;7151;52.246;4.820;2023-08-06T08:30:33;19.50;91.80
14142;DHT22;7151;52.246;4.820;2023-08-06T08:32:59;19.50;91.80
14142;DHT22;7151;52.246;4.820;2023-08-06T08:35:25;19.50;91.80
14142;DHT22;7151;52.246;4.820;2023-08-06T08:37:50;19.50;91.80
14142;DHT22;7151;52.246;4.820;2023-08-06T08:40:17;19.50;91.90
14142;DHT22;7151;52.246;4.820;2023-08-06T08:42:43;19.60;91.90
14142;DHT22;7151;52.246;4.820;2023-08-06T08:45:13;19.60;91.90
14142;DHT22;7151;52.246;4.820;2023-08-06T08:47:43;19.60;91.90
14142;DHT22;7151;52.246;4.820;2023-08-06T08:50:10;19.60;92.00
14142;DHT22;7151;52.246;4.820;2023-08-06T08:52:42;19.60;92.00
14142;DHT22;7151;52.246;4.820;2023-08-06T08:55:12;19.60;92.00
14142;DHT22;7151;52.246;4.820;2023-08-06T08:57:39;19.60;92.00
14142;DHT22;7151;52.246;4.820;2023-08-06T09:00:05;19.60;92.30
14142;DHT22;7151;52.246;4.820;2023-08-06T09:02:33;19.60;92.00
14142;DHT22;7151;52.246;4.820;2023-08-06T09:05:00;19.70;92.00
14142;DHT22;7151;52.246;4.820;2023-08-06T09:07:30;19.60;92.00
14142;DHT22;7151;52.246;4.820;2023-08-06T09:09:58;19.70;92.00
14142;DHT22;7151;52.246;4.820;2023-08-06T09:12:24;19.70;92.00
14142;DHT22;7151;52.246;4.820;2023-08-06T09:14:51;19.70;92.00
14142;DHT22;7151;52.246;4.820;2023-08-06T09:17:17;19.70;92.00
14142;DHT22;7151;52.246;4.820;2023-08-06T09:19:46;19.70;92.00
14142;DHT22;7151;52.246;4.820;2023-08-06T09:22:13;19.80;92.10
14142;DHT22;7151;52.246;4.820;2023-08-06T09:24:43;19.70;92.10
14142;DHT22;7151;52.246;4.820;2023-08-06T09:27:12;19.80;92.20
14142;DHT22;7151;52.246;4.820;2023-08-06T09:29:45;19.80;92.20
14142;DHT22;7151;52.246;4.820;2023-08-06T09:32:14;19.80;92.10
14142;DHT22;7151;52.246;4.820;2023-08-06T09:34:42;19.80;92.20
14142;DHT22;7151;52.246;4.820;2023-08-06T09:37:10;19.80;92.20
14142;DHT22;7151;52.246;4.820;2023-08-06T09:39:38;19.80;92.20
14142;DHT22;7151;52.246;4.820;2023-08-06T09:42:04;19.90;92.20
14142;DHT22;7151;52.246;4.820;2023-08-06T09:44:32;19.90;92.20
14142;DHT22;7151;52.246;4.820;2023-08-06T09:46:59;19.90;92.10
14142;DHT22;7151;52.246;4.820;2023-08-06T09:51:57;19.90;92.00
14142;DHT22;7151;52.246;4.820;2023-08-06T09:54:28;19.90;91.90
14142;DHT22;7151;52.246;4.820;2023-08-06T09:56:56;19.90;91.90
14142;DHT22;7151;52.246;4.820;2023-08-06T09:59:25;19.90;91.90
14142;DHT22;7151;52.246;4.820;2023-08-06T10:01:51;19.90;92.00
14142;DHT22;7151;52.246;4.820;2023-08-06T10:04:20;19.90;92.00
14142;DHT22;7151;52.246;4.820;2023-08-06T10:06:47;19.90;92.00
14142;DHT22;7151;52.246;4.820;2023-08-06T10:09:15;19.90;92.00
14142;DHT22;7151;52.246;4.820;2023-08-06T10:11:42;19.90;92.00
14142;DHT22;7151;52.246;4.820;2023-08-06T10:14:33;19.90;91.90
14142;DHT22;7151;52.246;4.820;2023-08-06T10:17:00;19.90;91.90
14142;DHT22;7151;52.246;4.820;2023-08-06T10:19:27;19.90;91.90
14142;DHT22;7151;52.246;4.820;2023-08-06T10:22:16;19.90;91.90
14142;DHT22;7151;52.246;4.820;2023-08-06T10:24:50;19.90;91.90
14142;DHT22;7151;52.246;4.820;2023-08-06T10:27:35;20.00;91.90
14142;DHT22;7151;52.246;4.820;2023-08-06T10:32:47;19.90;91.70
14142;DHT22;7151;52.246;4.820;2023-08-06T10:38:11;19.90;91.70
14142;DHT22;7151;52.246;4.820;2023-08-06T10:40:39;19.90;91.60
14142;DHT22;7151;52.246;4.820;2023-08-06T10:43:06;19.90;91.70
14142;DHT22;7151;52.246;4.820;2023-08-06T10:45:37;19.90;91.70
14142;DHT22;7151;52.246;4.820;2023-08-06T10:48:03;19.90;91.70
14142;DHT22;7151;52.246;4.820;2023-08-06T10:50:29;19.90;91.70
14142;DHT22;7151;52.246;4.820;2023-08-06T10:52:56;19.90;91.70
14142;DHT22;7151;52.246;4.820;2023-08-06T10:55:27;19.90;91.70
14142;DHT22;7151;52.246;4.820;2023-08-06T10:57:53;19.90;91.70
14142;DHT22;7151;52.246;4.820;2023-08-06T11:00:21;19.90;91.80
14142;DHT22;7151;52.246;4.820;2023-08-06T11:02:50;19.90;91.80
14142;DHT22;7151;52.246;4.820;2023-08-06T11:05:16;19.90;91.80
14142;DHT22;7151;52.246;4.820;2023-08-06T11:07:43;19.90;91.90
14142;DHT22;7151;52.246;4.820;2023-08-06T11:10:10;19.90;91.80
14142;DHT22;7151;52.246;4.820;2023-08-06T11:12:37;19.90;91.90
14142;DHT22;7151;52.246;4.820;2023-08-06T11:15:03;20.00;91.90
14142;DHT22;7151;52.246;4.820;2023-08-06T11:17:31;20.00;91.90
14142;DHT22;7151;52.246;4.820;2023-08-06T11:19:59;20.00;92.00
14142;DHT22;7151;52.246;4.820;2023-08-06T11:22:25;20.00;92.00
14142;DHT22;7151;52.246;4.820;2023-08-06T11:24:53;20.10;92.00
14142;DHT22;7151;52.246;4.820;2023-08-06T11:27:18;20.10;92.00
14142;DHT22;7151;52.246;4.820;2023-08-06T11:29:44;20.10;92.00
14142;DHT22;7151;52.246;4.820;2023-08-06T11:32:10;20.10;92.00
14142;DHT22;7151;52.246;4.820;2023-08-06T11:34:37;20.10;92.00
14142;DHT22;7151;52.246;4.820;2023-08-06T11:37:03;20.10;92.00
14142;DHT22;7151;52.246;4.820;2023-08-06T11:39:33;20.20;92.10
14142;DHT22;7151;52.246;4.820;2023-08-06T11:41:59;20.10;92.10
14142;DHT22;7151;52.246;4.820;2023-08-06T11:44:30;20.20;92.10
14142;DHT22;7151;52.246;4.820;2023-08-06T11:46:58;20.20;92.10
14142;DHT22;7151;52.246;4.820;2023-08-06T11:52:14;20.40;92.20
14142;DHT22;7151;52.246;4.820;2023-08-06T11:54:40;20.30;92.10
14142;DHT22;7151;52.246;4.820;2023-08-06T11:57:06;20.30;92.40
14142;DHT22;7151;52.246;4.820;2023-08-06T11:59:32;20.30;92.10
14142;DHT22;7151;52.246;4.820;2023-08-06T12:01:59;20.30;92.20
14142;DHT22;7151;52.246;4.820;2023-08-06T12:04:25;20.30;92.20
14142;DHT22;7151;52.246;4.820;2023-08-06T12:06:50;20.40;92.30
14142;DHT22;7151;52.246;4.820;2023-08-06T12:09:17;20.40;92.30
14142;DHT22;7151;52.246;4.820;2023-08-06T12:11:42;20.40;92.10
14142;DHT22;7151;52.246;4.820;2023-08-06T12:14:08;20.40;92.10
14142;DHT22;7151;52.246;4.820;2023-08-06T12:16:33;20.40;92.10
14142;DHT22;7151;52.246;4.820;2023-08-06T12:18:59;20.40;92.10
14142;DHT22;7151;52.246;4.820;2023-08-06T12:21:24;20.40;92.10
14142;DHT22;7151;52.246;4.820;2023-08-06T12:23:50;20.40;92.10
14142;DHT22;7151;52.246;4.820;2023-08-06T12:26:16;20.40;92.10
14142;DHT22;7151;52.246;4.820;2023-08-06T12:28:41;20.50;92.10
14142;DHT22;7151;52.246;4.820;2023-08-06T12:31:07;20.50;92.10
14142;DHT22;7151;52.246;4.820;2023-08-06T12:33:32;20.50;92.10
14142;DHT22;7151;52.246;4.820;2023-08-06T12:35:58;20.50;92.10
14142;DHT22;7151;52.246;4.820;2023-08-06T12:38:23;20.50;92.20
14142;DHT22;7151;52.246;4.820;2023-08-06T12:40:49;20.50;92.20
14142;DHT22;7151;52.246;4.820;2023-08-06T12:43:15;20.50;92.30
14142;DHT22;7151;52.246;4.820;2023-08-06T12:45:41;20.50;92.20
14142;DHT22;7151;52.246;4.820;2023-08-06T12:48:06;20.50;92.10
14142;DHT22;7151;52.246;4.820;2023-08-06T12:50:32;20.50;92.20
14142;DHT22;7151;52.246;4.820;2023-08-06T12:53:00;20.50;92.10
14142;DHT22;7151;52.246;4.820;2023-08-06T12:55:26;20.50;92.10
14142;DHT22;7151;52.246;4.820;2023-08-06T12:57:51;20.50;92.10
14142;DHT22;7151;52.246;4.820;2023-08-06T13:00:17;20.50;92.20
14142;DHT22;7151;52.246;4.820;2023-08-06T13:02:43;20.60;92.20
14142;DHT22;7151;52.246;4.820;2023-08-06T13:05:08;20.60;92.10
14142;DHT22;7151;52.246;4.820;2023-08-06T13:07:35;20.60;92.10
14142;DHT22;7151;52.246;4.820;2023-08-06T13:10:00;20.60;92.00
14142;DHT22;7151;52.246;4.820;2023-08-06T13:12:26;20.60;92.00
14142;DHT22;7151;52.246;4.820;2023-08-06T13:14:52;20.60;92.00
14142;DHT22;7151;52.246;4.820;2023-08-06T13:17:18;20.60;92.00
14142;DHT22;7151;52.246;4.820;2023-08-06T13:19:44;20.60;92.00
14142;DHT22;7151;52.246;4.820;2023-08-06T13:22:10;20.60;91.90
14142;DHT22;7151;52.246;4.820;2023-08-06T13:24:35;20.60;91.90
14142;DHT22;7151;52.246;4.820;2023-08-06T13:27:01;20.60;91.90
14142;DHT22;7151;52.246;4.820;2023-08-06T13:29:27;20.60;91.90
14142;DHT22;7151;52.246;4.820;2023-08-06T13:31:53;20.60;91.90
14142;DHT22;7151;52.246;4.820;2023-08-06T13:34:19;20.60;91.90
14142;DHT22;7151;52.246;4.820;2023-08-06T13:36:44;20.60;91.80
14142;DHT22;7151;52.246;4.820;2023-08-06T13:39:10;20.60;91.80
14142;DHT22;7151;52.246;4.820;2023-08-06T13:41:37;20.60;91.80
14142;DHT22;7151;52.246;4.820;2023-08-06T13:44:03;20.60;91.80
14142;DHT22;7151;52.246;4.820;2023-08-06T13:46:29;20.60;91.90
14142;DHT22;7151;52.246;4.820;2023-08-06T13:48:54;20.60;91.90
14142;DHT22;7151;52.246;4.820;2023-08-06T13:51:20;20.70;91.90
14142;DHT22;7151;52.246;4.820;2023-08-06T13:53:45;20.70;91.90
14142;DHT22;7151;52.246;4.820;2023-08-06T13:56:11;20.70;91.80
14142;DHT22;7151;52.246;4.820;2023-08-06T13:58:37;20.80;91.80
14142;DHT22;7151;52.246;4.820;2023-08-06T14:01:04;20.70;91.80
14142;DHT22;7151;52.246;4.820;2023-08-06T14:03:29;20.70;91.60
14142;DHT22;7151;52.246;4.820;2023-08-06T14:05:55;20.70;91.50
14142;DHT22;7151;52.246;4.820;2023-08-06T14:08:22;20.70;91.40
14142;DHT22;7151;52.246;4.820;2023-08-06T14:10:49;20.70;91.30
14142;DHT22;7151;52.246;4.820;2023-08-06T14:13:14;20.70;91.20
14142;DHT22;7151;52.246;4.820;2023-08-06T14:15:40;20.60;90.90
14142;DHT22;7151;52.246;4.820;2023-08-06T14:18:06;20.60;90.90
14142;DHT22;7151;52.246;4.820;2023-08-06T14:20:34;20.50;90.80
14142;DHT22;7151;52.246;4.820;2023-08-06T14:23:00;20.50;90.80
14142;DHT22;7151;52.246;4.820;2023-08-06T14:25:25;20.40;90.80
14142;DHT22;7151;52.246;4.820;2023-08-06T14:27:51;20.40;90.90
14142;DHT22;7151;52.246;4.820;2023-08-06T14:30:17;20.40;91.00
14142;DHT22;7151;52.246;4.820;2023-08-06T14:32:42;20.30;91.00
14142;DHT22;7151;52.246;4.820;2023-08-06T14:35:08;20.30;90.90
14142;DHT22;7151;52.246;4.820;2023-08-06T14:37:33;20.20;90.90
14142;DHT22;7151;52.246;4.820;2023-08-06T14:39:59;20.20;90.90
14142;DHT22;7151;52.246;4.820;2023-08-06T14:42:24;20.10;90.90
14142;DHT22;7151;52.246;4.820;2023-08-06T14:44:50;20.10;91.00
14142;DHT22;7151;52.246;4.820;2023-08-06T14:47:16;20.10;91.00
14142;DHT22;7151;52.246;4.820;2023-08-06T14:49:41;20.10;91.00
14142;DHT22;7151;52.246;4.820;2023-08-06T14:52:07;20.10;91.00
14142;DHT22;7151;52.246;4.820;2023-08-06T14:54:33;20.00;91.00
14142;DHT22;7151;52.246;4.820;2023-08-06T14:56:58;20.00;90.90
14142;DHT22;7151;52.246;4.820;2023-08-06T14:59:24;20.00;90.90
14142;DHT22;7151;52.246;4.820;2023-08-06T15:01:50;20.00;90.90
14142;DHT22;7151;52.246;4.820;2023-08-06T15:04:16;20.00;90.90
14142;DHT22;7151;52.246;4.820;2023-08-06T15:06:42;20.00;90.90
14142;DHT22;7151;52.246;4.820;2023-08-06T15:09:08;20.00;90.90
14142;DHT22;7151;52.246;4.820;2023-08-06T15:11:33;20.00;90.90
14142;DHT22;7151;52.246;4.820;2023-08-06T15:13:59;20.00;91.00
14142;DHT22;7151;52.246;4.820;2023-08-06T15:16:26;20.00;90.90
14142;DHT22;7151;52.246;4.820;2023-08-06T15:18:52;20.00;91.00
14142;DHT22;7151;52.246;4.820;2023-08-06T15:21:17;20.00;91.00
14142;DHT22;7151;52.246;4.820;2023-08-06T15:23:43;20.00;90.90
14142;DHT22;7151;52.246;4.820;2023-08-06T15:26:08;20.00;90.90
14142;DHT22;7151;52.246;4.820;2023-08-06T15:28:34;20.00;90.80
14142;DHT22;7151;52.246;4.820;2023-08-06T15:31:01;20.00;90.70
14142;DHT22;7151;52.246;4.820;2023-08-06T15:33:29;20.00;90.60
14142;DHT22;7151;52.246;4.820;2023-08-06T15:35:55;20.00;90.50
14142;DHT22;7151;52.246;4.820;2023-08-06T15:38:20;20.00;90.50
14142;DHT22;7151;52.246;4.820;2023-08-06T15:40:46;19.90;90.40
14142;DHT22;7151;52.246;4.820;2023-08-06T15:43:12;19.90;90.30
14142;DHT22;7151;52.246;4.820;2023-08-06T15:45:38;19.90;90.30
14142;DHT22;7151;52.246;4.820;2023-08-06T15:48:03;19.90;90.30
14142;DHT22;7151;52.246;4.820;2023-08-06T15:50:29;19.90;90.30
14142;DHT22;7151;52.246;4.820;2023-08-06T15:52:55;19.90;90.20